Time;durP1;ratioP1;P1;durP2;ratioP2;P2;SDS_P1;SDS_P2;PMS_P1;PMS_P2;Temp;Humidity;BMP_temperature;BMP_pressure;BME280_temperature;BME280_humidity;BME280_pressure;Samples;Min_cycle;Max_cycle;Signal;HPM_P1;HPM_P2
2023/02/21 02:15:20;;;;;;;1999.90;999.90;;;7.70;99.90;;;;;;5092382;28;20024;-81
2023/02/21 02:17:49;;;;;;;1999.90;999.90;;;7.70;99.90;;;;;;5070108;28;20451;-81
2023/02/21 02:21:08;;;;;;;1999.90;999.90;;;7.70;99.90;;;;;;5112251;28;20026;-78
2023/02/21 02:23:42;;;;;;;1999.90;999.90;;;7.70;99.90;;;;;;5009714;28;20029;-81
2023/02/21 02:26:08;;;;;;;1999.90;999.90;;;7.70;99.90;;;;;;5096624;28;20123;-74
2023/02/21 02:28:42;;;;;;;1999.90;999.90;;;7.60;99.90;;;;;;5111953;28;20099;-75
2023/02/21 02:31:20;;;;;;;1999.90;999.90;;;7.60;99.90;;;;;;5112129;28;20373;-75
2023/02/21 02:34:07;;;;;;;1999.90;999.90;;;7.60;99.90;;;;;;5112105;28;20070;-82
2023/02/21 02:36:37;;;;;;;1999.90;999.90;;;7.60;99.90;;;;;;5112229;28;20460;-81
2023/02/21 02:39:12;;;;;;;1999.90;999.90;;;7.50;99.90;;;;;;5099124;28;20551;-74
2023/02/21 02:42:10;;;;;;;1999.90;999.90;;;7.50;99.90;;;;;;5091661;28;20123;-74
2023/02/21 02:44:52;;;;;;;1999.90;999.90;;;7.50;99.90;;;;;;5092527;28;20025;-82
2023/02/21 02:47:24;;;;;;;1999.90;999.90;;;7.50;99.90;;;;;;5075248;28;20045;-81
2023/02/21 02:49:51;;;;;;;1999.90;999.90;;;7.40;99.90;;;;;;5074853;28;20020;-81
2023/02/21 02:52:17;;;;;;;1999.90;999.90;;;7.40;99.90;;;;;;5081930;28;20024;-74
2023/02/21 02:54:42;;;;;;;1999.90;999.90;;;7.40;99.90;;;;;;5095647;28;20027;-74
2023/02/21 02:57:11;;;;;;;1999.90;999.90;;;7.40;99.90;;;;;;5077233;28;20024;-82
2023/02/21 02:59:42;;;;;;;1999.90;999.90;;;7.40;99.90;;;;;;5095426;28;20044;-81
2023/02/21 03:02:25;;;;;;;1999.90;999.90;;;7.30;99.90;;;;;;5095649;28;20050;-81
2023/02/21 03:05:19;;;;;;;1999.90;999.90;;;7.40;99.90;;;;;;5088068;28;20024;-74
2023/02/21 03:07:49;;;;;;;1999.90;999.90;;;7.40;99.90;;;;;;5095191;28;20040;-81
2023/02/21 03:10:42;;;;;;;1999.90;999.90;;;7.40;99.90;;;;;;5095156;28;20035;-75
2023/02/21 03:13:29;;;;;;;1999.90;999.90;;;7.40;99.90;;;;;;5094990;28;20404;-81
2023/02/21 03:16:03;;;;;;;1999.90;999.90;;;7.40;99.90;;;;;;5095177;28;20490;-82
2023/02/21 03:18:55;;;;;;;1999.90;999.90;;;7.40;99.90;;;;;;5095311;28;20028;-74
2023/02/21 03:21:27;;;;;;;1999.90;999.90;;;7.40;99.90;;;;;;5051968;28;20118;-74
2023/02/21 03:23:57;;;;;;;1999.90;999.90;;;7.40;99.90;;;;;;5094958;28;20024;-80
2023/02/21 03:26:25;;;;;;;1999.90;999.90;;;7.40;99.90;;;;;;5095393;28;20048;-82
2023/02/21 03:28:52;;;;;;;1999.90;999.90;;;7.40;99.90;;;;;;5094445;28;20028;-81
2023/02/21 03:31:23;;;;;;;1999.90;999.90;;;7.40;99.90;;;;;;5093705;28;20039;-75
2023/02/21 03:33:48;;;;;;;1999.90;999.90;;;7.40;99.90;;;;;;5094946;28;20043;-74
2023/02/21 03:36:15;;;;;;;1999.90;999.90;;;7.40;99.90;;;;;;5095103;28;20430;-81
2023/02/21 03:38:40;;;;;;;1999.90;999.90;;;7.40;99.90;;;;;;5094610;28;20377;-81
2023/02/21 03:41:08;;;;;;;1999.90;999.90;;;7.40;99.90;;;;;;5094323;28;20098;-81
2023/02/21 03:43:33;;;;;;;1999.90;999.90;;;7.40;99.90;;;;;;5094717;28;20032;-74
2023/02/21 03:45:59;;;;;;;1999.90;999.90;;;7.40;99.90;;;;;;5101892;28;20142;-74
2023/02/21 03:48:24;;;;;;;1999.90;999.90;;;7.40;99.90;;;;;;5115154;28;20400;-74
2023/02/21 03:50:50;;;;;;;1999.90;999.90;;;7.50;99.90;;;;;;5096370;28;20093;-81
2023/02/21 03:53:16;;;;;;;1999.90;999.90;;;7.40;99.90;;;;;;5099570;28;20476;-82
2023/02/21 03:55:41;;;;;;;1999.90;999.90;;;7.50;99.90;;;;;;5093931;28;20032;-75
2023/02/21 03:58:07;;;;;;;1999.90;999.90;;;7.50;99.90;;;;;;5094637;28;20024;-74
2023/02/21 04:00:33;;;;;;;1999.90;999.90;;;7.50;99.90;;;;;;5113343;28;20099;-81
2023/02/21 04:02:58;;;;;;;1999.90;999.90;;;7.50;99.90;;;;;;5114430;28;20027;-74
2023/02/21 04:05:24;;;;;;;1999.90;999.90;;;7.50;99.90;;;;;;5096124;28;20053;-74
2023/02/21 04:07:49;;;;;;;1999.90;999.90;;;7.60;99.90;;;;;;5114470;28;20040;-74
2023/02/21 04:10:15;;;;;;;1999.90;999.90;;;7.60;99.90;;;;;;5114738;28;20028;-74
2023/02/21 04:12:41;;;;;;;1999.90;999.90;;;7.60;99.90;;;;;;5114019;28;20028;-75
2023/02/21 04:15:07;;;;;;;1999.90;999.90;;;7.60;99.90;;;;;;5114304;28;20036;-82
2023/02/21 04:17:32;;;;;;;1999.90;999.90;;;7.60;99.90;;;;;;5113914;28;20499;-81
2023/02/21 04:19:58;;;;;;;1999.90;999.90;;;7.60;99.90;;;;;;5114006;28;20107;-82
2023/02/21 04:22:24;;;;;;;1999.90;999.90;;;7.60;99.90;;;;;;5114150;28;20024;-75
2023/02/21 04:24:49;;;;;;;1999.90;999.90;;;7.70;99.90;;;;;;5114503;28;20035;-82
2023/02/21 04:27:15;;;;;;;1999.90;999.90;;;7.70;99.90;;;;;;5114140;28;20028;-82
2023/02/21 04:29:41;;;;;;;1999.90;999.90;;;7.70;99.90;;;;;;5113945;28;20391;-74
2023/02/21 04:32:09;;;;;;;1999.90;999.90;;;7.80;99.90;;;;;;5114353;28;20039;-82
2023/02/21 04:34:34;;;;;;;1999.90;999.90;;;7.80;99.90;;;;;;5114184;28;20077;-75
2023/02/21 04:37:00;;;;;;;1999.90;999.90;;;7.80;99.90;;;;;;5113972;28;20027;-82
2023/02/21 04:39:26;;;;;;;1999.90;999.90;;;7.90;99.90;;;;;;5097922;28;20031;-82
2023/02/21 04:41:51;;;;;;;1999.90;999.90;;;7.90;99.90;;;;;;5093514;28;20095;-81
2023/02/21 04:44:17;;;;;;;1999.90;999.90;;;8.00;99.90;;;;;;5093932;28;20496;-81
2023/02/21 04:46:42;;;;;;;1999.90;999.90;;;8.00;99.90;;;;;;5106948;28;20055;-82
2023/02/21 04:49:10;;;;;;;1999.90;999.90;;;8.00;99.90;;;;;;5113529;28;20424;-74
2023/02/21 04:51:36;;;;;;;1999.90;999.90;;;8.00;99.90;;;;;;5112965;28;20063;-75
2023/02/21 04:54:02;;;;;;;1999.90;999.90;;;8.10;99.90;;;;;;5074454;28;20063;-81
2023/02/21 04:56:28;;;;;;;1999.90;999.90;;;8.10;99.90;;;;;;5093338;28;20028;-81
2023/02/21 04:58:54;;;;;;;1999.90;999.90;;;8.20;99.90;;;;;;5093306;28;20369;-75
2023/02/21 05:01:20;;;;;;;1999.90;999.90;;;8.20;99.90;;;;;;5093154;28;20036;-82
2023/02/21 05:03:47;;;;;;;1999.90;999.90;;;8.30;99.90;;;;;;5092787;28;20028;-75
2023/02/21 05:06:25;;;;;;;1999.90;999.90;;;8.30;99.90;;;;;;5093376;28;20062;-82
2023/02/21 05:08:51;;;;;;;1999.90;999.90;;;8.40;99.90;;;;;;5091818;28;20040;-75
2023/02/21 05:11:18;;;;;;;1999.90;999.90;;;8.50;99.90;;;;;;5092879;28;20021;-80
2023/02/21 05:13:44;;;;;;;1999.90;999.90;;;8.50;99.90;;;;;;5092176;28;20463;-74
2023/02/21 05:16:10;;;;;;;1999.90;999.90;;;8.60;99.90;;;;;;5092838;28;20055;-75
2023/02/21 05:18:37;;;;;;;1999.90;999.90;;;8.70;99.90;;;;;;5074773;28;20110;-82
2023/02/21 05:21:06;;;;;;;1999.90;999.90;;;8.80;99.90;;;;;;5092590;28;20488;-81
2023/02/21 05:23:33;;;;;;;1999.90;999.90;;;8.80;99.90;;;;;;5092305;28;20622;-81
2023/02/21 05:26:04;;;;;;;1999.90;999.90;;;8.80;99.90;;;;;;5092853;28;20051;-74
2023/02/21 05:28:30;;;;;;;1999.90;999.90;;;8.80;99.90;;;;;;5092598;28;20012;-74
2023/02/21 05:30:56;;;;;;;1999.90;999.90;;;8.80;99.90;;;;;;5092716;28;20038;-82
2023/02/21 05:33:22;;;;;;;1999.90;999.90;;;8.80;99.90;;;;;;5092489;28;20028;-75
2023/02/21 05:35:49;;;;;;;1999.90;999.90;;;8.80;99.90;;;;;;5092212;28;20563;-74
2023/02/21 05:38:17;;;;;;;1999.90;999.90;;;8.80;99.90;;;;;;5092285;28;20016;-75
2023/02/21 05:40:42;;;;;;;1999.90;999.90;;;8.80;99.90;;;;;;5092596;28;20028;-74
2023/02/21 05:43:08;;;;;;;1999.90;999.90;;;8.80;99.90;;;;;;5092162;28;20027;-74
2023/02/21 05:45:34;;;;;;;1999.90;999.90;;;8.90;99.90;;;;;;5095846;28;20054;-81
2023/02/21 05:48:01;;;;;;;1999.90;999.90;;;8.90;99.90;;;;;;5112907;28;20106;-74
2023/02/21 05:50:28;;;;;;;1999.90;999.90;;;8.80;99.90;;;;;;5108840;28;20404;-81
2023/02/21 05:52:54;;;;;;;1999.90;999.90;;;8.90;99.90;;;;;;5091306;28;20103;-74
2023/02/21 05:55:20;;;;;;;1999.90;999.90;;;8.90;99.90;;;;;;5091865;28;20032;-81
2023/02/21 05:57:45;;;;;;;1999.90;999.90;;;8.90;99.90;;;;;;5091405;28;20510;-81
2023/02/21 06:00:23;;;;;;;1999.90;999.90;;;8.90;99.90;;;;;;5092268;28;20063;-81
2023/02/21 06:02:51;;;;;;;1999.90;999.90;;;8.90;99.90;;;;;;5091779;28;20540;-74
2023/02/21 06:05:17;;;;;;;1999.90;999.90;;;8.90;99.90;;;;;;5091573;28;20066;-81
2023/02/21 06:07:43;;;;;;;1999.90;999.90;;;8.90;99.90;;;;;;5091676;28;20032;-75
2023/02/21 06:10:08;;;;;;;1999.90;999.90;;;8.90;99.90;;;;;;5091979;28;20455;-74
2023/02/21 06:12:35;;;;;;;1999.90;999.90;;;8.90;99.90;;;;;;5091440;28;20024;-81
2023/02/21 06:15:01;;;;;;;1999.90;999.90;;;8.80;99.90;;;;;;5091909;28;20032;-80
2023/02/21 06:17:26;;;;;;;1999.90;999.90;;;8.70;99.90;;;;;;5091278;28;20115;-81
2023/02/21 06:19:55;;;;;;;1999.90;999.90;;;8.70;99.90;;;;;;5091759;28;20099;-74
2023/02/21 06:22:21;;;;;;;1999.90;999.90;;;8.60;99.90;;;;;;5091701;28;20020;-74
2023/02/21 06:24:46;;;;;;;1999.90;999.90;;;8.60;99.90;;;;;;5091883;28;20097;-74
2023/02/21 06:27:12;;;;;;;1999.90;999.90;;;8.50;99.90;;;;;;5091313;28;20078;-76
2023/02/21 06:29:37;;;;;;;1999.90;999.90;;;8.40;99.90;;;;;;5091677;28;20035;-74
2023/02/21 06:32:03;;;;;;;1999.90;999.90;;;8.40;99.90;;;;;;5088277;28;20496;-74
2023/02/21 06:34:29;;;;;;;1999.90;999.90;;;8.30;99.90;;;;;;5083961;28;20107;-74
2023/02/21 06:36:55;;;;;;;1999.90;999.90;;;8.40;99.90;;;;;;5074265;28;20449;-80
2023/02/21 06:39:21;;;;;;;1999.90;999.90;;;8.30;99.90;;;;;;5086121;28;20032;-74
2023/02/21 06:41:49;;;;;;;1999.90;999.90;;;8.30;99.90;;;;;;5086577;28;20442;-80
2023/02/21 06:44:15;;;;;;;1999.90;999.90;;;8.30;99.90;;;;;;5093308;28;20099;-74
2023/02/21 06:46:42;;;;;;;1999.90;999.90;;;8.30;99.90;;;;;;5088456;28;20571;-74
2023/02/21 06:49:08;;;;;;;1999.90;999.90;;;8.30;99.90;;;;;;5084874;28;20090;-81
2023/02/21 06:51:40;;;;;;;1999.90;999.90;;;8.40;99.90;;;;;;5086701;28;20073;-80
2023/02/21 06:54:06;;;;;;;1999.90;999.90;;;8.50;99.90;;;;;;5089854;28;20034;-80
2023/02/21 06:56:33;;;;;;;1999.90;999.90;;;8.50;99.90;;;;;;5087059;28;20042;-80
2023/02/21 06:58:59;;;;;;;1999.90;999.90;;;8.50;99.90;;;;;;5066785;28;20540;-74
2023/02/21 07:01:29;;;;;;;1999.90;999.90;;;8.50;99.90;;;;;;5082657;28;20111;-80
2023/02/21 07:03:56;;;;;;;1999.90;999.90;;;8.50;99.90;;;;;;5086781;28;20017;-80
2023/02/21 07:06:22;;;;;;;1999.90;999.90;;;8.60;99.90;;;;;;5087341;28;20027;-80
2023/02/21 07:08:48;;;;;;;1999.90;999.90;;;8.60;99.90;;;;;;5090599;28;20036;-80
2023/02/21 07:11:14;;;;;;;1999.90;999.90;;;8.60;99.90;;;;;;5094143;28;20039;-74
2023/02/21 07:13:40;;;;;;;1999.90;999.90;;;8.60;99.90;;;;;;5090705;28;20036;-74
2023/02/21 07:16:06;;;;;;;1999.90;999.90;;;8.60;99.90;;;;;;5084440;28;20035;-80
2023/02/21 07:18:32;;;;;;;1999.90;999.90;;;8.60;99.90;;;;;;5091799;28;20039;-74
2023/02/21 07:20:58;;;;;;;1999.90;999.90;;;8.60;99.90;;;;;;5088071;28;20039;-74
2023/02/21 07:23:24;;;;;;;1999.90;999.90;;;8.60;99.90;;;;;;5084868;28;20024;-74
2023/02/21 07:25:49;;;;;;;1999.90;999.90;;;8.60;99.90;;;;;;5083809;28;20062;-75
2023/02/21 07:28:16;;;;;;;1999.90;999.90;;;8.60;99.90;;;;;;5087030;28;20032;-78
2023/02/21 07:30:42;;;;;;;1999.90;999.90;;;8.70;99.90;;;;;;5056665;28;20109;-81
2023/02/21 07:33:07;;;;;;;1999.90;999.90;;;8.70;99.90;;;;;;5078055;28;20067;-80
2023/02/21 07:35:33;;;;;;;1999.90;999.90;;;8.70;99.90;;;;;;5078847;28;20028;-74
2023/02/21 07:37:59;;;;;;;1999.90;999.90;;;8.80;99.90;;;;;;5088384;28;20032;-74
2023/02/21 07:40:24;;;;;;;1999.90;999.90;;;8.80;99.90;;;;;;5091281;28;20027;-80
2023/02/21 07:42:50;;;;;;;1999.90;999.90;;;8.80;99.90;;;;;;5088059;28;20028;-79
2023/02/21 07:45:16;;;;;;;1999.90;999.90;;;8.80;99.90;;;;;;5091508;28;20024;-80
2023/02/21 07:47:44;;;;;;;1999.90;999.90;;;8.90;99.90;;;;;;5091607;28;20400;-80
2023/02/21 07:50:11;;;;;;;1999.90;999.90;;;8.90;99.90;;;;;;5095940;28;20067;-75
2023/02/21 07:52:37;;;;;;;1999.90;999.90;;;9.00;99.90;;;;;;5086054;28;20050;-74
2023/02/21 07:55:03;;;;;;;1999.90;999.90;;;9.00;99.90;;;;;;5061560;28;20028;-74
2023/02/21 07:57:28;;;;;;;1999.90;999.90;;;9.10;99.90;;;;;;5080415;28;20373;-80
2023/02/21 07:59:54;;;;;;;1999.90;999.90;;;9.10;99.90;;;;;;5083891;28;20030;-74
2023/02/21 08:02:20;;;;;;;1999.90;999.90;;;9.20;99.90;;;;;;5089320;28;20508;-80
2023/02/21 08:04:50;;;;;;;1999.90;999.90;;;9.30;99.90;;;;;;5083813;28;20020;-75
2023/02/21 08:07:15;;;;;;;1999.90;999.90;;;9.30;99.90;;;;;;5089227;28;20021;-74
2023/02/21 08:09:41;;;;;;;1999.90;999.90;;;9.40;99.90;;;;;;5088706;28;20668;-80
2023/02/21 08:12:07;;;;;;;1999.90;999.90;;;9.40;99.90;;;;;;5084588;28;20038;-80
2023/02/21 08:14:32;;;;;;;1999.90;999.90;;;9.40;99.90;;;;;;5071960;28;20024;-81
2023/02/21 08:16:58;;;;;;;1999.90;999.90;;;9.40;99.90;;;;;;5091560;28;20060;-80
2023/02/21 08:19:23;;;;;;;1999.90;999.90;;;9.40;99.90;;;;;;5092650;28;20034;-74
2023/02/21 08:21:49;;;;;;;1999.90;999.90;;;9.50;99.90;;;;;;5086654;28;20040;-81
2023/02/21 08:24:16;;;;;;;1999.90;999.90;;;9.60;99.90;;;;;;5082448;28;20795;-75
2023/02/21 08:26:44;;;;;;;1999.90;999.90;;;9.60;99.90;;;;;;5086050;28;20035;-80
2023/02/21 08:29:10;;;;;;;1999.90;999.90;;;9.70;99.90;;;;;;5076623;28;20051;-75
2023/02/21 08:31:37;;;;;;;1999.90;999.90;;;9.80;99.90;;;;;;5081666;28;20168;-80
2023/02/21 08:34:03;;;;;;;1999.90;999.90;;;9.90;99.90;;;;;;5091541;28;20042;-75
2023/02/21 08:36:37;;;;;;;1999.90;999.90;;;10.00;99.90;;;;;;5086978;28;20411;-81
2023/02/21 08:39:04;;;;;;;1999.90;999.90;;;10.10;99.90;;;;;;5086114;28;20040;-74
2023/02/21 08:41:41;;;;;;;1999.90;999.90;;;10.10;99.90;;;;;;5097620;28;20024;-74
2023/02/21 08:44:11;;;;;;;1999.90;999.90;;;10.20;99.90;;;;;;5082290;28;20438;-74
2023/02/21 08:46:38;;;;;;;1999.90;999.90;;;10.20;99.90;;;;;;5092988;28;20046;-74
2023/02/21 08:49:04;;;;;;;1999.90;999.90;;;10.30;99.90;;;;;;5099068;28;20124;-78
2023/02/21 08:51:32;;;;;;;1999.90;999.90;;;10.40;99.90;;;;;;5090567;28;20031;-77
2023/02/21 08:53:58;;;;;;;1999.90;999.90;;;10.40;99.90;;;;;;5082293;28;20101;-74
2023/02/21 08:56:24;;;;;;;1999.90;999.90;;;10.40;99.90;;;;;;5087569;28;20488;-74
2023/02/21 08:58:50;;;;;;;1999.90;999.90;;;10.50;99.90;;;;;;5076406;28;20040;-74
2023/02/21 09:01:16;;;;;;;1999.90;999.90;;;10.60;99.90;;;;;;5086599;28;20405;-76
2023/02/21 09:03:42;;;;;;;1999.90;999.90;;;10.70;99.90;;;;;;5089685;28;20028;-81
2023/02/21 09:06:08;;;;;;;1999.90;999.90;;;10.80;99.90;;;;;;5085783;28;20489;-75
2023/02/21 09:08:37;;;;;;;1999.90;999.90;;;10.90;99.90;;;;;;5091662;28;20039;-81
2023/02/21 09:11:03;;;;;;;1999.90;999.90;;;11.00;99.90;;;;;;5091559;28;20476;-75
2023/02/21 09:13:31;;;;;;;1999.90;999.90;;;10.90;99.90;;;;;;5087343;28;20107;-76
2023/02/21 09:15:58;;;;;;;1999.90;999.90;;;10.90;99.90;;;;;;5079849;28;20514;-79
2023/02/21 09:18:25;;;;;;;1999.90;999.90;;;11.00;99.90;;;;;;5091360;28;20414;-79
2023/02/21 09:20:52;;;;;;;1999.90;999.90;;;11.10;99.90;;;;;;5073104;28;20846;-76
2023/02/21 09:23:19;;;;;;;1999.90;999.90;;;11.30;99.90;;;;;;5076282;28;20063;-78
2023/02/21 09:25:49;;;;;;;1999.90;999.90;;;11.30;99.90;;;;;;5075822;28;20024;-76
2023/02/21 09:28:15;;;;;;;1999.90;999.90;;;11.10;99.90;;;;;;5083270;28;20387;-78
2023/02/21 09:30:41;;;;;;;1999.90;999.90;;;11.00;99.90;;;;;;5077482;28;20048;-78
2023/02/21 09:33:07;;;;;;;1999.90;999.90;;;11.00;99.90;;;;;;5083169;28;20538;-78
2023/02/21 09:35:33;;;;;;;1999.90;999.90;;;11.00;99.90;;;;;;5061743;28;20037;-76
2023/02/21 09:38:00;;;;;;;1999.90;999.90;;;11.10;99.90;;;;;;5064472;28;20035;-76
2023/02/21 09:40:31;;;;;;;1999.90;999.90;;;11.20;99.90;;;;;;5088131;28;20570;-79
2023/02/21 09:42:59;;;;;;;1999.90;999.90;;;11.20;99.90;;;;;;5081608;28;20021;-76
2023/02/21 09:45:29;;;;;;;1999.90;999.90;;;11.20;99.90;;;;;;5078043;28;20036;-79
2023/02/21 09:47:57;;;;;;;1999.90;999.90;;;11.20;99.90;;;;;;5066814;28;20055;-76
2023/02/21 09:50:29;;;;;;;1999.90;999.90;;;11.30;99.90;;;;;;5072286;28;20428;-77
2023/02/21 09:52:57;;;;;;;1999.90;999.90;;;11.30;99.90;;;;;;5088899;28;20065;-76
2023/02/21 09:55:32;;;;;;;1999.90;999.90;;;11.40;99.90;;;;;;5080036;28;20158;-76
2023/02/21 09:57:58;;;;;;;1999.90;999.90;;;11.40;99.90;;;;;;5080441;28;20042;-76
2023/02/21 10:00:31;;;;;;;1999.90;999.90;;;11.30;99.90;;;;;;5080221;28;20020;-79
2023/02/21 10:03:03;;;;;;;1999.90;999.90;;;11.20;99.90;;;;;;5088554;28;20023;-76
2023/02/21 10:05:32;;;;;;;1999.90;999.90;;;11.20;99.90;;;;;;5086768;28;20035;-80
2023/02/21 10:08:01;;;;;;;1999.90;999.90;;;11.20;99.90;;;;;;5086790;28;20055;-79
2023/02/21 10:10:27;;;;;;;1999.90;999.90;;;11.20;99.90;;;;;;5094052;28;20462;-81
2023/02/21 10:13:10;;;;;;;1999.90;999.90;;;11.30;99.90;;;;;;5085062;28;20107;-76
2023/02/21 10:15:52;;;;;;;1999.90;999.90;;;11.50;99.90;;;;;;5081192;28;20519;-79
2023/02/21 10:19:02;;;;;;;1999.90;999.90;;;11.90;99.90;;;;;;5083540;28;20024;-78
2023/02/21 10:21:45;;;;;;;1999.90;999.90;;;12.40;99.90;;;;;;5070431;28;20036;-78
2023/02/21 10:24:14;;;;;;;1999.90;999.90;;;12.60;99.90;;;;;;5086395;28;20060;-81
2023/02/21 10:26:47;;;;;;;1999.90;999.90;;;12.90;99.90;;;;;;5066606;28;20035;-79
2023/02/21 10:29:54;;;;;;;1999.90;999.90;;;12.90;99.90;;;;;;5088803;28;20022;-77
2023/02/21 10:32:21;;;;;;;1999.90;999.90;;;12.80;99.90;;;;;;5085745;28;20036;-79
2023/02/21 10:34:48;;;;;;;1999.90;999.90;;;12.80;99.90;;;;;;5074389;28;20082;-77
2023/02/21 10:37:51;;;;;;;1999.90;999.90;;;13.00;99.90;;;;;;5079497;28;20020;-80
2023/02/21 10:40:23;;;;;;;;;;;13.20;99.90;;;;;;5001724;28;20369;-76
2023/02/21 10:42:53;;;;;;;1999.90;999.90;;;13.30;99.90;;;;;;5002690;28;20012;-77
2023/02/21 10:45:26;;;;;;;1999.90;999.90;;;13.40;99.90;;;;;;4992104;28;20021;-81
2023/02/21 10:48:00;;;;;;;1999.90;999.90;;;13.50;99.90;;;;;;5007328;28;20665;-81
2023/02/21 10:50:38;;;;;;;1999.90;999.90;;;13.50;99.90;;;;;;5010302;28;20071;-81
2023/02/21 10:53:05;;;;;;;1999.90;999.90;;;13.70;99.90;;;;;;5010541;28;20038;-78
2023/02/21 10:55:31;;;;;;;1999.90;999.90;;;13.90;99.90;;;;;;4996998;28;20050;-77
2023/02/21 10:57:58;;;;;;;1999.90;999.90;;;14.00;99.90;;;;;;5004695;28;20030;-80
2023/02/21 11:00:27;;;;;;;1999.90;999.90;;;14.10;99.90;;;;;;4997650;28;20048;-81
2023/02/21 11:03:03;;;;;;;1999.90;999.90;;;14.00;99.90;;;;;;4998410;28;20446;-80
2023/02/21 11:05:28;;;;;;;1999.90;999.90;;;13.90;99.90;;;;;;4998234;28;20034;-77
2023/02/21 11:08:05;;;;;;;1999.90;999.90;;;13.80;99.90;;;;;;5002865;28;20046;-78
2023/02/21 11:10:36;;;;;;;1999.90;999.90;;;13.80;99.90;;;;;;4997118;28;20117;-82
2023/02/21 11:13:20;;;;;;;1999.90;999.90;;;13.60;99.90;;;;;;5010060;28;20116;-77
2023/02/21 11:15:47;;;;;;;1999.90;999.90;;;13.50;99.90;;;;;;5087924;28;20043;-80
2023/02/21 11:18:17;;;;;;;1999.90;999.90;;;13.50;99.90;;;;;;5075358;28;20020;-78
2023/02/21 11:20:44;;;;;;;1999.90;999.90;;;13.20;99.90;;;;;;5075194;28;20042;-78
2023/02/21 11:23:25;;;;;;;1999.90;999.90;;;13.10;99.90;;;;;;5081741;28;20115;-78
2023/02/21 11:26:10;;;;;;;1999.90;999.90;;;13.00;99.90;;;;;;5085517;28;20159;-80
2023/02/21 11:28:44;;;;;;;1999.90;999.90;;;12.90;99.90;;;;;;5078020;28;20135;-77
2023/02/21 11:31:16;;;;;;;1999.90;999.90;;;12.80;99.90;;;;;;5087493;28;20038;-76
2023/02/21 11:34:06;;;;;;;1999.90;999.90;;;12.70;99.90;;;;;;5087091;28;20036;-80
2023/02/21 11:36:39;;;;;;;1999.90;999.90;;;12.70;99.90;;;;;;5084113;28;20060;-76
2023/02/21 11:39:26;;;;;;;1999.90;999.90;;;12.70;99.90;;;;;;5081627;28;20036;-80
2023/02/21 11:41:52;;;;;;;1999.90;999.90;;;12.80;99.90;;;;;;5086930;28;20472;-79
2023/02/21 11:44:39;;;;;;;1999.90;999.90;;;12.90;99.90;;;;;;5061643;28;20059;-76
2023/02/21 11:47:15;;;;;;;1999.90;999.90;;;13.20;99.90;;;;;;5085659;28;20412;-81
2023/02/21 11:49:51;;;;;;;1999.90;999.90;;;13.30;99.90;;;;;;5084476;28;20040;-80
2023/02/21 11:52:24;;;;;;;1999.90;999.90;;;13.50;99.90;;;;;;5083609;28;20024;-81
2023/02/21 11:54:50;;;;;;;1999.90;999.90;;;13.60;99.90;;;;;;5090082;28;20579;-76
2023/02/21 11:57:27;;;;;;;1999.90;999.90;;;13.60;99.90;;;;;;5087428;28;20031;-75
2023/02/21 12:00:04;;;;;;;1999.90;999.90;;;13.70;99.90;;;;;;5078919;28;20103;-76
2023/02/21 12:02:58;;;;;;;1999.90;999.90;;;13.60;99.90;;;;;;5082085;28;20020;-81
2023/02/21 12:05:38;;;;;;;;;;;13.40;99.90;;;;;;5083856;28;20035;-81
2023/02/21 12:08:04;;;;;;;1999.90;999.90;;;13.40;99.90;;;;;;5070652;28;20406;-80
2023/02/21 12:11:20;;;;;;;1999.90;999.90;;;13.30;99.90;;;;;;5084959;28;20032;-76
2023/02/21 12:14:04;;;;;;;1999.90;999.90;;;13.30;99.90;;;;;;5034598;28;20048;-76
2023/02/21 12:17:03;;;;;;;1999.90;999.90;;;13.20;99.90;;;;;;5063462;28;20033;-81
2023/02/21 12:19:45;;;;;;;1999.90;999.90;;;13.20;99.90;;;;;;5079834;28;20028;-76
2023/02/21 12:22:11;;;;;;;1999.90;999.90;;;13.30;99.90;;;;;;5089503;28;20031;-81
2023/02/21 12:24:45;;;;;;;1999.90;999.90;;;13.30;99.90;;;;;;5082126;28;20020;-76
2023/02/21 12:27:23;;;;;;;1999.90;999.90;;;13.30;99.90;;;;;;5081915;28;20543;-80
2023/02/21 12:30:16;;;;;;;1999.90;999.90;;;13.50;99.90;;;;;;5083147;28;20036;-76
2023/02/21 12:33:03;;;;;;;1999.90;999.90;;;13.60;99.90;;;;;;5085351;28;20051;-80
2023/02/21 12:36:12;;;;;;;1999.90;999.90;;;13.60;99.90;;;;;;5072953;28;20029;-76
2023/02/21 12:39:12;;;;;;;1999.90;999.90;;;13.70;99.90;;;;;;5088234;28;20016;-77
2023/02/21 12:41:46;;;;;;;1999.90;999.90;;;13.80;99.90;;;;;;5094645;28;20016;-79
2023/02/21 12:44:14;;;;;;;1999.90;999.90;;;13.90;99.90;;;;;;5088440;28;20035;-80
2023/02/21 12:47:07;;;;;;;1999.90;999.90;;;14.00;99.90;;;;;;5091721;28;20397;-80
2023/02/21 12:49:54;;;;;;;1999.90;999.90;;;14.00;99.90;;;;;;5091215;28;20025;-74
2023/02/21 12:52:39;;;;;;;1999.90;999.90;;;14.00;99.90;;;;;;5089948;28;20034;-76
2023/02/21 12:55:14;;;;;;;1999.90;999.90;;;13.90;99.90;;;;;;5093790;28;20032;-74
2023/02/21 12:57:58;;;;;;;1999.90;999.90;;;13.80;99.90;;;;;;5091748;28;20028;-79
2023/02/21 13:00:49;;;;;;;1999.90;999.90;;;13.90;99.90;;;;;;5064341;28;20039;-80
2023/02/21 13:03:35;;;;;;;1999.90;999.90;;;13.90;99.90;;;;;;5075890;28;20169;-74
2023/02/21 13:06:07;;;;;;;1999.90;999.90;;;13.90;99.90;;;;;;5087048;28;20047;-77
2023/02/21 13:08:55;;;;;;;1999.90;999.90;;;14.00;99.90;;;;;;5090623;28;20930;-79
2023/02/21 13:11:28;;;;;;;1999.90;999.90;;;14.00;99.90;;;;;;5066361;28;20123;-79
2023/02/21 13:13:56;;;;;;;1999.90;999.90;;;13.90;99.90;;;;;;5092561;28;20038;-79
2023/02/21 13:16:23;;;;;;;1999.90;999.90;;;13.90;99.90;;;;;;5084410;28;20039;-75
2023/02/21 13:18:58;;;;;;;1999.90;999.90;;;13.80;99.90;;;;;;5082037;28;20439;-74
2023/02/21 13:21:54;;;;;;;1999.90;999.90;;;13.80;99.90;;;;;;5079831;28;20020;-82
2023/02/21 13:24:20;;;;;;;1999.90;999.90;;;13.90;99.90;;;;;;5085065;28;20024;-75
2023/02/21 13:26:51;;;;;;;1999.90;999.90;;;13.70;99.90;;;;;;5083342;28;20500;-80
2023/02/21 13:29:22;;;;;;;1999.90;999.90;;;13.80;99.90;;;;;;5086669;28;20576;-76
2023/02/21 13:31:57;;;;;;;1999.90;999.90;;;13.80;99.90;;;;;;5083354;28;20035;-74
2023/02/21 13:34:26;;;;;;;1999.90;999.90;;;13.70;99.90;;;;;;5074060;28;20043;-73
2023/02/21 13:36:51;;;;;;;1999.90;999.90;;;13.60;99.90;;;;;;5082743;28;20039;-80
2023/02/21 13:39:30;;;;;;;1999.90;999.90;;;13.60;99.90;;;;;;5077031;28;20024;-79
2023/02/21 13:42:15;;;;;;;1999.90;999.90;;;13.70;99.90;;;;;;5084401;28;20024;-74
2023/02/21 13:45:07;;;;;;;1999.90;999.90;;;13.80;99.90;;;;;;5079776;28;20064;-76
2023/02/21 13:47:51;;;;;;;1999.90;999.90;;;13.70;99.90;;;;;;5081608;28;20039;-80
2023/02/21 13:50:37;;;;;;;1999.90;999.90;;;13.90;99.90;;;;;;5083098;28;20444;-81
2023/02/21 13:53:15;;;;;;;1999.90;999.90;;;13.80;99.90;;;;;;5061116;28;20032;-80
2023/02/21 13:56:00;;;;;;;1999.90;999.90;;;13.90;99.90;;;;;;5078920;28;20036;-76
2023/02/21 13:58:38;;;;;;;1999.90;999.90;;;13.80;99.90;;;;;;5062331;28;20020;-77
2023/02/21 14:01:21;;;;;;;1999.90;999.90;;;13.60;99.90;;;;;;5081626;28;20656;-84
2023/02/21 14:03:47;;;;;;;1999.90;999.90;;;13.40;99.90;;;;;;5073161;28;20649;-82
2023/02/21 14:06:28;;;;;;;1999.90;999.90;;;13.30;99.90;;;;;;5086221;28;20115;-77
2023/02/21 14:09:00;;;;;;;1999.90;999.90;;;13.40;99.90;;;;;;5070142;28;20539;-81
2023/02/21 14:11:30;;;;;;;1999.90;999.90;;;13.30;99.90;;;;;;5088740;28;20031;-76
2023/02/21 14:14:03;;;;;;;1999.90;999.90;;;13.30;99.90;;;;;;5086275;28;20055;-76
2023/02/21 14:16:52;;;;;;;1999.90;999.90;;;13.30;99.90;;;;;;5091323;28;20063;-76
2023/02/21 14:19:30;;;;;;;1999.90;999.90;;;13.20;99.90;;;;;;5090239;28;20016;-81
2023/02/21 14:22:02;;;;;;;1999.90;999.90;;;12.90;99.90;;;;;;5092515;28;20024;-76
2023/02/21 14:24:31;;;;;;;1999.90;999.90;;;13.00;99.90;;;;;;5090394;28;20452;-81
2023/02/21 14:27:24;;;;;;;1999.90;999.90;;;12.90;99.90;;;;;;5095458;28;20114;-81
2023/02/21 14:30:08;;;;;;;1999.90;999.90;;;12.90;99.90;;;;;;5098980;28;20104;-80
2023/02/21 14:32:45;;;;;;;1999.90;999.90;;;13.00;99.90;;;;;;5084410;28;20107;-77
2023/02/21 14:35:36;;;;;;;1999.90;999.90;;;12.90;99.90;;;;;;5084469;28;20130;-76
2023/02/21 14:38:15;;;;;;;1999.90;999.90;;;13.00;99.90;;;;;;5088546;28;20024;-76
2023/02/21 14:40:59;;;;;;;1999.90;999.90;;;12.90;99.90;;;;;;5091936;28;20061;-82